Airfield :
LOGIN :

Register | Disclaimer

   EN    FR    IT 

 










Legend :    VFR   Marginal VFR   IFR   Intensive IFR   Very Intensive IFR
Visi :
Ceiling :
>= 8 km
>= 3000ft
5 to 8 km
1000 to 3000 ft
1500m to 5 km
500 to 1000 ft
800 to 1500m
200 to 500 ft
< 800m
< 200 ft
Symbols :   Thunderstorms  Fog  Heavy snow  Heavy precipitations  Wind > 20 kt
SIGMETs :     Misc.  Thunderstorms  Icing  Turbulence  Mountain Waves  Volcanic Ashes







- Airport Elevation : 14 ft
- IATA code : BRE


EDDW - Bremen Neuenland

CURRENT METAR :
  • 141950Z 10003KT 070V140 9999 FEW037 BKN047 00/M01 Q1028 NOSIG

EXPIRED METARs :
  • 141920Z 09004KT 9999 BKN047 00/M01 Q1027 NOSIG
  • 141850Z 09005KT 9999 BKN047 00/M01 Q1027 NOSIG
  • 141820Z 09005KT 9999 BKN046 00/M01 Q1027 NOSIG
  • 141750Z 09005KT 9999 BKN048 M00/M02 Q1027 NOSIG
  • 141720Z 08007KT 9999 BKN048 M00/M02 Q1027 NOSIG

TAF TAF EDDW
Valid from the 14 at 18:00 until the 15 at 18:00 UTC


141700Z 1418/1518 10005KT 9999 FEW015 BKN040
PROB30
TEMPO 1422/1510 BKN008
BECMG 1517/1518 13010KT
No reported NOTAMs for that airfield.



MET'MAP, your aeronautical weather chart ! - Copyright ORBIFLY December 2007 - Disclaimer

ORBIFLY MET'MAP TEAM :

Programming & Development : Alexandra Zaïnal
Concept & Development : Baudouin d'Aumeries
Co-Development & Prog : Marc-Olivier Méhu
Technical & hardware support : Manuel Goepfert

Contact : metmap@orbifly.com




SOURCES & CREDITS :

   NOAA